sensor_id;sensor_type;location;lat;lon;timestamp;P1;durP1;ratioP1;P2;durP2;ratioP2
7917;SDS011;4004;42.624;23.386;2023-06-22T00:00:51;10.03;;;9.10;;
7917;SDS011;4004;42.624;23.386;2023-06-22T00:03:18;10.83;;;9.83;;
7917;SDS011;4004;42.624;23.386;2023-06-22T00:05:45;10.10;;;9.20;;
7917;SDS011;4004;42.624;23.386;2023-06-22T00:08:12;11.77;;;9.33;;
7917;SDS011;4004;42.624;23.386;2023-06-22T00:10:40;9.60;;;8.70;;
7917;SDS011;4004;42.624;23.386;2023-06-22T00:13:07;10.43;;;8.40;;
7917;SDS011;4004;42.624;23.386;2023-06-22T00:15:36;8.43;;;7.63;;
7917;SDS011;4004;42.624;23.386;2023-06-22T00:18:06;7.97;;;7.27;;
7917;SDS011;4004;42.624;23.386;2023-06-22T00:20:33;7.90;;;7.30;;
7917;SDS011;4004;42.624;23.386;2023-06-22T00:23:01;8.83;;;7.13;;
7917;SDS011;4004;42.624;23.386;2023-06-22T00:25:31;9.00;;;7.10;;
7917;SDS011;4004;42.624;23.386;2023-06-22T00:27:58;9.00;;;7.07;;
7917;SDS011;4004;42.624;23.386;2023-06-22T00:30:25;9.03;;;7.80;;
7917;SDS011;4004;42.624;23.386;2023-06-22T00:32:53;8.20;;;7.03;;
7917;SDS011;4004;42.624;23.386;2023-06-22T00:35:19;9.17;;;7.33;;
7917;SDS011;4004;42.624;23.386;2023-06-22T00:37:46;9.47;;;6.87;;
7917;SDS011;4004;42.624;23.386;2023-06-22T00:40:13;7.93;;;7.13;;
7917;SDS011;4004;42.624;23.386;2023-06-22T00:42:40;8.50;;;7.70;;
7917;SDS011;4004;42.624;23.386;2023-06-22T00:45:07;7.97;;;7.20;;
7917;SDS011;4004;42.624;23.386;2023-06-22T00:47:34;8.50;;;7.80;;
7917;SDS011;4004;42.624;23.386;2023-06-22T00:50:05;9.20;;;8.07;;
7917;SDS011;4004;42.624;23.386;2023-06-22T00:52:35;9.33;;;8.53;;
7917;SDS011;4004;42.624;23.386;2023-06-22T00:55:02;9.47;;;8.67;;
7917;SDS011;4004;42.624;23.386;2023-06-22T00:57:29;10.47;;;8.83;;
7917;SDS011;4004;42.624;23.386;2023-06-22T00:59:56;10.67;;;9.40;;
7917;SDS011;4004;42.624;23.386;2023-06-22T01:02:23;9.90;;;9.00;;
7917;SDS011;4004;42.624;23.386;2023-06-22T01:04:50;10.60;;;8.57;;
7917;SDS011;4004;42.624;23.386;2023-06-22T01:07:20;10.33;;;9.33;;
7917;SDS011;4004;42.624;23.386;2023-06-22T01:09:57;12.77;;;10.27;;
7917;SDS011;4004;42.624;23.386;2023-06-22T01:12:29;11.13;;;9.60;;
7917;SDS011;4004;42.624;23.386;2023-06-22T01:15:00;12.67;;;10.00;;
7917;SDS011;4004;42.624;23.386;2023-06-22T01:17:31;10.97;;;9.57;;
7917;SDS011;4004;42.624;23.386;2023-06-22T01:19:59;11.47;;;9.63;;
7917;SDS011;4004;42.624;23.386;2023-06-22T01:22:33;10.50;;;9.60;;
7917;SDS011;4004;42.624;23.386;2023-06-22T01:25:06;11.33;;;9.87;;
7917;SDS011;4004;42.624;23.386;2023-06-22T01:27:39;10.80;;;9.70;;
7917;SDS011;4004;42.624;23.386;2023-06-22T01:30:15;11.47;;;10.23;;
7917;SDS011;4004;42.624;23.386;2023-06-22T01:32:43;10.43;;;9.53;;
7917;SDS011;4004;42.624;23.386;2023-06-22T01:35:10;10.03;;;9.13;;
7917;SDS011;4004;42.624;23.386;2023-06-22T01:37:38;11.70;;;10.37;;
7917;SDS011;4004;42.624;23.386;2023-06-22T01:40:05;12.03;;;9.77;;
7917;SDS011;4004;42.624;23.386;2023-06-22T01:42:34;12.67;;;10.67;;
7917;SDS011;4004;42.624;23.386;2023-06-22T01:45:02;12.10;;;10.97;;
7917;SDS011;4004;42.624;23.386;2023-06-22T01:47:32;14.13;;;10.83;;
7917;SDS011;4004;42.624;23.386;2023-06-22T01:49:59;10.70;;;9.63;;
7917;SDS011;4004;42.624;23.386;2023-06-22T01:52:27;11.20;;;10.20;;
7917;SDS011;4004;42.624;23.386;2023-06-22T01:54:54;11.33;;;10.23;;
7917;SDS011;4004;42.624;23.386;2023-06-22T01:57:22;11.87;;;10.87;;
7917;SDS011;4004;42.624;23.386;2023-06-22T01:59:51;10.70;;;9.60;;
7917;SDS011;4004;42.624;23.386;2023-06-22T02:02:25;11.33;;;10.03;;
7917;SDS011;4004;42.624;23.386;2023-06-22T02:04:58;10.37;;;9.37;;
7917;SDS011;4004;42.624;23.386;2023-06-22T02:07:30;9.43;;;8.57;;
7917;SDS011;4004;42.624;23.386;2023-06-22T02:09:59;9.57;;;8.67;;
7917;SDS011;4004;42.624;23.386;2023-06-22T02:12:30;9.63;;;8.27;;
7917;SDS011;4004;42.624;23.386;2023-06-22T02:14:58;8.93;;;8.03;;
7917;SDS011;4004;42.624;23.386;2023-06-22T02:17:26;9.13;;;8.23;;
7917;SDS011;4004;42.624;23.386;2023-06-22T02:19:53;9.03;;;8.17;;
7917;SDS011;4004;42.624;23.386;2023-06-22T02:22:21;11.80;;;10.37;;
7917;SDS011;4004;42.624;23.386;2023-06-22T02:24:48;9.13;;;8.33;;
7917;SDS011;4004;42.624;23.386;2023-06-22T02:27:15;10.70;;;9.20;;
7917;SDS011;4004;42.624;23.386;2023-06-22T02:29:42;10.30;;;9.20;;
7917;SDS011;4004;42.624;23.386;2023-06-22T02:32:09;9.97;;;8.97;;
7917;SDS011;4004;42.624;23.386;2023-06-22T02:34:35;10.27;;;9.30;;
7917;SDS011;4004;42.624;23.386;2023-06-22T02:37:02;10.67;;;9.77;;
7917;SDS011;4004;42.624;23.386;2023-06-22T02:39:31;10.10;;;9.17;;
7917;SDS011;4004;42.624;23.386;2023-06-22T02:41:58;9.93;;;9.07;;
7917;SDS011;4004;42.624;23.386;2023-06-22T02:44:25;10.27;;;9.27;;
7917;SDS011;4004;42.624;23.386;2023-06-22T02:46:51;10.57;;;8.97;;
7917;SDS011;4004;42.624;23.386;2023-06-22T02:49:19;9.97;;;9.03;;
7917;SDS011;4004;42.624;23.386;2023-06-22T02:51:47;10.00;;;9.00;;
7917;SDS011;4004;42.624;23.386;2023-06-22T02:54:14;11.53;;;8.17;;
7917;SDS011;4004;42.624;23.386;2023-06-22T02:56:42;9.30;;;8.00;;
7917;SDS011;4004;42.624;23.386;2023-06-22T02:59:10;11.03;;;8.33;;
7917;SDS011;4004;42.624;23.386;2023-06-22T03:01:37;8.60;;;7.77;;
7917;SDS011;4004;42.624;23.386;2023-06-22T03:04:06;8.13;;;7.43;;
7917;SDS011;4004;42.624;23.386;2023-06-22T03:06:33;8.83;;;7.77;;
7917;SDS011;4004;42.624;23.386;2023-06-22T03:09:00;9.20;;;7.70;;
7917;SDS011;4004;42.624;23.386;2023-06-22T03:11:29;9.23;;;7.63;;
7917;SDS011;4004;42.624;23.386;2023-06-22T03:13:57;16.70;;;8.77;;
7917;SDS011;4004;42.624;23.386;2023-06-22T03:16:24;12.43;;;7.93;;
7917;SDS011;4004;42.624;23.386;2023-06-22T03:18:51;8.43;;;7.63;;
7917;SDS011;4004;42.624;23.386;2023-06-22T03:21:18;9.40;;;8.47;;
7917;SDS011;4004;42.624;23.386;2023-06-22T03:23:45;10.73;;;8.33;;
7917;SDS011;4004;42.624;23.386;2023-06-22T03:26:12;9.10;;;8.27;;
7917;SDS011;4004;42.624;23.386;2023-06-22T03:28:38;9.60;;;8.70;;
7917;SDS011;4004;42.624;23.386;2023-06-22T03:31:06;10.60;;;8.37;;
7917;SDS011;4004;42.624;23.386;2023-06-22T03:33:34;11.77;;;8.50;;
7917;SDS011;4004;42.624;23.386;2023-06-22T03:36:01;9.70;;;8.70;;
7917;SDS011;4004;42.624;23.386;2023-06-22T03:38:28;12.93;;;8.27;;
7917;SDS011;4004;42.624;23.386;2023-06-22T03:40:54;8.57;;;7.73;;
7917;SDS011;4004;42.624;23.386;2023-06-22T03:43:21;8.97;;;8.03;;
7917;SDS011;4004;42.624;23.386;2023-06-22T03:45:49;8.67;;;7.77;;
7917;SDS011;4004;42.624;23.386;2023-06-22T03:48:17;10.43;;;7.70;;
7917;SDS011;4004;42.624;23.386;2023-06-22T03:50:44;11.77;;;7.63;;
7917;SDS011;4004;42.624;23.386;2023-06-22T03:53:10;8.33;;;7.63;;
7917;SDS011;4004;42.624;23.386;2023-06-22T03:55:40;8.57;;;7.13;;
7917;SDS011;4004;42.624;23.386;2023-06-22T03:58:13;11.37;;;9.00;;
7917;SDS011;4004;42.624;23.386;2023-06-22T04:00:40;12.03;;;8.10;;
7917;SDS011;4004;42.624;23.386;2023-06-22T04:03:07;10.67;;;7.97;;
7917;SDS011;4004;42.624;23.386;2023-06-22T04:05:35;13.50;;;7.43;;
7917;SDS011;4004;42.624;23.386;2023-06-22T04:08:02;17.20;;;7.90;;
7917;SDS011;4004;42.624;23.386;2023-06-22T04:10:29;16.07;;;8.63;;
7917;SDS011;4004;42.624;23.386;2023-06-22T04:12:56;27.57;;;9.03;;
7917;SDS011;4004;42.624;23.386;2023-06-22T04:15:22;21.27;;;9.90;;
7917;SDS011;4004;42.624;23.386;2023-06-22T04:17:49;25.07;;;9.47;;
7917;SDS011;4004;42.624;23.386;2023-06-22T04:20:16;24.97;;;8.70;;
7917;SDS011;4004;42.624;23.386;2023-06-22T04:22:44;21.47;;;9.67;;
7917;SDS011;4004;42.624;23.386;2023-06-22T04:25:11;20.27;;;8.43;;
7917;SDS011;4004;42.624;23.386;2023-06-22T04:27:37;23.00;;;8.30;;
7917;SDS011;4004;42.624;23.386;2023-06-22T04:30:06;12.30;;;7.53;;
7917;SDS011;4004;42.624;23.386;2023-06-22T04:32:34;9.80;;;6.67;;
7917;SDS011;4004;42.624;23.386;2023-06-22T04:35:04;11.53;;;7.27;;
7917;SDS011;4004;42.624;23.386;2023-06-22T04:37:31;9.17;;;7.17;;
7917;SDS011;4004;42.624;23.386;2023-06-22T04:39:59;9.63;;;6.80;;
7917;SDS011;4004;42.624;23.386;2023-06-22T04:42:26;11.63;;;7.80;;
7917;SDS011;4004;42.624;23.386;2023-06-22T04:44:53;9.57;;;7.40;;
7917;SDS011;4004;42.624;23.386;2023-06-22T04:47:20;8.87;;;7.53;;
7917;SDS011;4004;42.624;23.386;2023-06-22T04:49:47;10.67;;;7.93;;
7917;SDS011;4004;42.624;23.386;2023-06-22T04:52:13;10.90;;;8.40;;
7917;SDS011;4004;42.624;23.386;2023-06-22T04:54:42;14.20;;;11.90;;
7917;SDS011;4004;42.624;23.386;2023-06-22T04:57:14;10.03;;;7.67;;
7917;SDS011;4004;42.624;23.386;2023-06-22T04:59:41;9.60;;;7.30;;
7917;SDS011;4004;42.624;23.386;2023-06-22T05:02:08;13.67;;;7.80;;
7917;SDS011;4004;42.624;23.386;2023-06-22T05:04:35;10.60;;;7.20;;
7917;SDS011;4004;42.624;23.386;2023-06-22T05:07:04;10.20;;;7.37;;
7917;SDS011;4004;42.624;23.386;2023-06-22T05:09:31;13.93;;;6.53;;
7917;SDS011;4004;42.624;23.386;2023-06-22T05:11:58;11.87;;;7.10;;
7917;SDS011;4004;42.624;23.386;2023-06-22T05:14:28;7.63;;;6.70;;
7917;SDS011;4004;42.624;23.386;2023-06-22T05:16:56;13.03;;;7.00;;
7917;SDS011;4004;42.624;23.386;2023-06-22T05:19:24;17.63;;;7.97;;
7917;SDS011;4004;42.624;23.386;2023-06-22T05:21:58;19.87;;;7.43;;
7917;SDS011;4004;42.624;23.386;2023-06-22T05:24:25;21.70;;;10.30;;
7917;SDS011;4004;42.624;23.386;2023-06-22T05:26:52;16.43;;;8.27;;
7917;SDS011;4004;42.624;23.386;2023-06-22T05:29:18;14.73;;;8.20;;
7917;SDS011;4004;42.624;23.386;2023-06-22T05:31:48;8.70;;;7.80;;
7917;SDS011;4004;42.624;23.386;2023-06-22T05:34:15;11.50;;;7.72;;
7917;SDS011;4004;42.624;23.386;2023-06-22T05:36:42;8.35;;;7.40;;
7917;SDS011;4004;42.624;23.386;2023-06-22T05:39:12;10.57;;;6.75;;
7917;SDS011;4004;42.624;23.386;2023-06-22T05:41:40;12.23;;;7.97;;
7917;SDS011;4004;42.624;23.386;2023-06-22T05:44:08;14.17;;;8.27;;
7917;SDS011;4004;42.624;23.386;2023-06-22T05:46:35;9.43;;;8.00;;
7917;SDS011;4004;42.624;23.386;2023-06-22T05:49:03;11.33;;;8.80;;
7917;SDS011;4004;42.624;23.386;2023-06-22T05:51:33;13.40;;;8.80;;
7917;SDS011;4004;42.624;23.386;2023-06-22T05:54:16;15.83;;;9.30;;
7917;SDS011;4004;42.624;23.386;2023-06-22T05:56:43;13.33;;;9.80;;
7917;SDS011;4004;42.624;23.386;2023-06-22T05:59:10;19.20;;;9.27;;
7917;SDS011;4004;42.624;23.386;2023-06-22T06:01:37;12.97;;;8.37;;
7917;SDS011;4004;42.624;23.386;2023-06-22T06:04:06;9.00;;;8.10;;
7917;SDS011;4004;42.624;23.386;2023-06-22T06:06:34;11.33;;;8.80;;
7917;SDS011;4004;42.624;23.386;2023-06-22T06:09:02;11.77;;;9.60;;
7917;SDS011;4004;42.624;23.386;2023-06-22T06:11:29;11.17;;;9.10;;
7917;SDS011;4004;42.624;23.386;2023-06-22T06:13:56;12.10;;;8.70;;
7917;SDS011;4004;42.624;23.386;2023-06-22T06:16:23;12.23;;;9.43;;
7917;SDS011;4004;42.624;23.386;2023-06-22T06:18:50;14.23;;;8.90;;
7917;SDS011;4004;42.624;23.386;2023-06-22T06:21:19;13.67;;;9.37;;
7917;SDS011;4004;42.624;23.386;2023-06-22T06:23:46;16.60;;;10.53;;
7917;SDS011;4004;42.624;23.386;2023-06-22T06:26:13;12.97;;;9.73;;
7917;SDS011;4004;42.624;23.386;2023-06-22T06:28:41;11.57;;;9.63;;
7917;SDS011;4004;42.624;23.386;2023-06-22T06:31:08;13.73;;;8.70;;
7917;SDS011;4004;42.624;23.386;2023-06-22T06:33:36;13.30;;;9.33;;
7917;SDS011;4004;42.624;23.386;2023-06-22T06:36:03;14.03;;;9.23;;
7917;SDS011;4004;42.624;23.386;2023-06-22T06:38:31;10.37;;;9.23;;
7917;SDS011;4004;42.624;23.386;2023-06-22T06:40:58;18.57;;;9.67;;
7917;SDS011;4004;42.624;23.386;2023-06-22T06:43:25;11.67;;;8.17;;
7917;SDS011;4004;42.624;23.386;2023-06-22T06:45:52;13.40;;;8.60;;
7917;SDS011;4004;42.624;23.386;2023-06-22T06:48:18;13.67;;;8.70;;
7917;SDS011;4004;42.624;23.386;2023-06-22T06:50:45;14.33;;;9.03;;
7917;SDS011;4004;42.624;23.386;2023-06-22T06:53:12;14.63;;;9.03;;
7917;SDS011;4004;42.624;23.386;2023-06-22T06:55:40;13.43;;;8.60;;
7917;SDS011;4004;42.624;23.386;2023-06-22T06:58:07;11.03;;;8.30;;
7917;SDS011;4004;42.624;23.386;2023-06-22T07:00:35;22.20;;;8.80;;
7917;SDS011;4004;42.624;23.386;2023-06-22T07:03:02;11.47;;;8.60;;
7917;SDS011;4004;42.624;23.386;2023-06-22T07:05:28;11.47;;;8.63;;
7917;SDS011;4004;42.624;23.386;2023-06-22T07:07:55;11.43;;;8.57;;
7917;SDS011;4004;42.624;23.386;2023-06-22T07:10:22;9.93;;;8.23;;
7917;SDS011;4004;42.624;23.386;2023-06-22T07:12:50;9.70;;;8.73;;
7917;SDS011;4004;42.624;23.386;2023-06-22T07:15:17;11.33;;;9.33;;
7917;SDS011;4004;42.624;23.386;2023-06-22T07:17:44;13.90;;;12.30;;
7917;SDS011;4004;42.624;23.386;2023-06-22T07:20:11;15.17;;;10.17;;
7917;SDS011;4004;42.624;23.386;2023-06-22T07:22:39;13.03;;;9.83;;
7917;SDS011;4004;42.624;23.386;2023-06-22T07:25:06;14.10;;;9.00;;
7917;SDS011;4004;42.624;23.386;2023-06-22T07:27:35;10.23;;;9.03;;
7917;SDS011;4004;42.624;23.386;2023-06-22T07:30:07;11.77;;;9.53;;
7917;SDS011;4004;42.624;23.386;2023-06-22T07:32:34;11.60;;;9.30;;
7917;SDS011;4004;42.624;23.386;2023-06-22T07:35:01;15.27;;;9.20;;
7917;SDS011;4004;42.624;23.386;2023-06-22T07:37:29;11.00;;;9.03;;
7917;SDS011;4004;42.624;23.386;2023-06-22T07:39:55;15.13;;;9.73;;
7917;SDS011;4004;42.624;23.386;2023-06-22T07:42:24;12.53;;;9.50;;
7917;SDS011;4004;42.624;23.386;2023-06-22T07:44:51;15.27;;;9.67;;
7917;SDS011;4004;42.624;23.386;2023-06-22T07:47:19;10.23;;;9.13;;
7917;SDS011;4004;42.624;23.386;2023-06-22T07:49:50;10.57;;;9.03;;
7917;SDS011;4004;42.624;23.386;2023-06-22T07:52:17;14.60;;;9.50;;
7917;SDS011;4004;42.624;23.386;2023-06-22T07:54:43;10.33;;;9.10;;
7917;SDS011;4004;42.624;23.386;2023-06-22T07:57:10;13.57;;;9.17;;
7917;SDS011;4004;42.624;23.386;2023-06-22T07:59:37;14.97;;;9.23;;
7917;SDS011;4004;42.624;23.386;2023-06-22T08:02:04;16.23;;;10.47;;
7917;SDS011;4004;42.624;23.386;2023-06-22T08:04:32;12.33;;;10.40;;
7917;SDS011;4004;42.624;23.386;2023-06-22T08:06:59;14.87;;;9.90;;
7917;SDS011;4004;42.624;23.386;2023-06-22T08:09:27;15.13;;;10.33;;
7917;SDS011;4004;42.624;23.386;2023-06-22T08:11:54;13.27;;;9.50;;
7917;SDS011;4004;42.624;23.386;2023-06-22T08:14:21;13.40;;;8.97;;
7917;SDS011;4004;42.624;23.386;2023-06-22T08:16:48;10.77;;;9.50;;
7917;SDS011;4004;42.624;23.386;2023-06-22T08:19:15;15.83;;;8.73;;
7917;SDS011;4004;42.624;23.386;2023-06-22T08:21:43;17.10;;;9.90;;
7917;SDS011;4004;42.624;23.386;2023-06-22T08:24:10;9.43;;;7.93;;
7917;SDS011;4004;42.624;23.386;2023-06-22T08:26:37;10.37;;;9.30;;
7917;SDS011;4004;42.624;23.386;2023-06-22T08:29:03;11.13;;;8.90;;
7917;SDS011;4004;42.624;23.386;2023-06-22T08:31:30;13.13;;;8.27;;
7917;SDS011;4004;42.624;23.386;2023-06-22T08:33:59;15.37;;;9.57;;
7917;SDS011;4004;42.624;23.386;2023-06-22T08:36:26;16.80;;;9.27;;
7917;SDS011;4004;42.624;23.386;2023-06-22T08:38:56;12.00;;;9.47;;
7917;SDS011;4004;42.624;23.386;2023-06-22T08:41:26;12.27;;;9.70;;
7917;SDS011;4004;42.624;23.386;2023-06-22T08:43:53;11.77;;;9.23;;
7917;SDS011;4004;42.624;23.386;2023-06-22T08:46:20;11.13;;;9.37;;
7917;SDS011;4004;42.624;23.386;2023-06-22T08:48:49;14.73;;;9.70;;
7917;SDS011;4004;42.624;23.386;2023-06-22T08:51:16;10.00;;;8.80;;
7917;SDS011;4004;42.624;23.386;2023-06-22T08:53:43;10.70;;;9.57;;
7917;SDS011;4004;42.624;23.386;2023-06-22T08:56:12;13.53;;;9.07;;
7917;SDS011;4004;42.624;23.386;2023-06-22T08:58:39;12.90;;;9.80;;
7917;SDS011;4004;42.624;23.386;2023-06-22T09:01:05;11.90;;;9.27;;
7917;SDS011;4004;42.624;23.386;2023-06-22T09:03:32;12.40;;;9.20;;
7917;SDS011;4004;42.624;23.386;2023-06-22T09:06:01;16.10;;;10.13;;
7917;SDS011;4004;42.624;23.386;2023-06-22T09:08:28;14.47;;;10.73;;
7917;SDS011;4004;42.624;23.386;2023-06-22T09:10:55;13.47;;;11.53;;
7917;SDS011;4004;42.624;23.386;2023-06-22T09:13:23;14.70;;;10.90;;
7917;SDS011;4004;42.624;23.386;2023-06-22T09:15:50;12.77;;;10.83;;
7917;SDS011;4004;42.624;23.386;2023-06-22T09:18:17;14.23;;;10.60;;
7917;SDS011;4004;42.624;23.386;2023-06-22T09:20:45;12.00;;;10.20;;
7917;SDS011;4004;42.624;23.386;2023-06-22T09:23:12;14.50;;;9.80;;
7917;SDS011;4004;42.624;23.386;2023-06-22T09:25:39;13.63;;;9.70;;
7917;SDS011;4004;42.624;23.386;2023-06-22T09:28:06;13.20;;;9.80;;
7917;SDS011;4004;42.624;23.386;2023-06-22T09:30:35;11.37;;;9.23;;
7917;SDS011;4004;42.624;23.386;2023-06-22T09:33:02;11.37;;;9.23;;
7917;SDS011;4004;42.624;23.386;2023-06-22T09:35:28;10.40;;;9.40;;
7917;SDS011;4004;42.624;23.386;2023-06-22T09:37:55;11.57;;;9.73;;
7917;SDS011;4004;42.624;23.386;2023-06-22T09:40:22;10.73;;;9.70;;
7917;SDS011;4004;42.624;23.386;2023-06-22T09:42:49;14.80;;;10.30;;
7917;SDS011;4004;42.624;23.386;2023-06-22T09:45:15;10.77;;;9.20;;
7917;SDS011;4004;42.624;23.386;2023-06-22T09:47:44;13.80;;;9.53;;
7917;SDS011;4004;42.624;23.386;2023-06-22T09:50:10;12.57;;;9.23;;
7917;SDS011;4004;42.624;23.386;2023-06-22T09:52:38;10.80;;;9.13;;
7917;SDS011;4004;42.624;23.386;2023-06-22T09:55:05;10.40;;;9.27;;
7917;SDS011;4004;42.624;23.386;2023-06-22T09:57:32;20.10;;;9.63;;
7917;SDS011;4004;42.624;23.386;2023-06-22T09:59:59;12.67;;;9.83;;
7917;SDS011;4004;42.624;23.386;2023-06-22T10:02:26;10.67;;;8.80;;
7917;SDS011;4004;42.624;23.386;2023-06-22T10:04:54;10.10;;;9.03;;
7917;SDS011;4004;42.624;23.386;2023-06-22T10:07:20;10.33;;;9.33;;
7917;SDS011;4004;42.624;23.386;2023-06-22T10:09:47;10.97;;;9.03;;
7917;SDS011;4004;42.624;23.386;2023-06-22T10:12:14;13.80;;;8.97;;
7917;SDS011;4004;42.624;23.386;2023-06-22T10:14:41;9.87;;;8.87;;
7917;SDS011;4004;42.624;23.386;2023-06-22T10:17:07;12.83;;;9.23;;
7917;SDS011;4004;42.624;23.386;2023-06-22T10:19:34;9.97;;;8.97;;
7917;SDS011;4004;42.624;23.386;2023-06-22T10:22:04;11.37;;;9.60;;
7917;SDS011;4004;42.624;23.386;2023-06-22T10:24:31;10.33;;;8.73;;
7917;SDS011;4004;42.624;23.386;2023-06-22T10:26:58;9.97;;;9.00;;
7917;SDS011;4004;42.624;23.386;2023-06-22T10:29:25;8.30;;;7.60;;
7917;SDS011;4004;42.624;23.386;2023-06-22T10:31:52;10.90;;;7.73;;
7917;SDS011;4004;42.624;23.386;2023-06-22T10:34:18;8.50;;;7.70;;
7917;SDS011;4004;42.624;23.386;2023-06-22T10:36:45;9.20;;;8.30;;
7917;SDS011;4004;42.624;23.386;2023-06-22T10:39:15;9.53;;;8.33;;
7917;SDS011;4004;42.624;23.386;2023-06-22T10:41:42;8.63;;;7.83;;
7917;SDS011;4004;42.624;23.386;2023-06-22T10:44:08;10.20;;;8.53;;
7917;SDS011;4004;42.624;23.386;2023-06-22T10:46:35;10.33;;;8.63;;
7917;SDS011;4004;42.624;23.386;2023-06-22T10:49:02;9.43;;;8.23;;
7917;SDS011;4004;42.624;23.386;2023-06-22T10:51:29;10.90;;;8.50;;
7917;SDS011;4004;42.624;23.386;2023-06-22T10:53:56;9.20;;;8.17;;
7917;SDS011;4004;42.624;23.386;2023-06-22T10:56:24;9.57;;;7.93;;
7917;SDS011;4004;42.624;23.386;2023-06-22T10:58:52;10.10;;;8.33;;
7917;SDS011;4004;42.624;23.386;2023-06-22T11:01:19;9.30;;;8.40;;
7917;SDS011;4004;42.624;23.386;2023-06-22T11:03:46;15.40;;;9.57;;
7917;SDS011;4004;42.624;23.386;2023-06-22T11:06:13;11.67;;;8.33;;
7917;SDS011;4004;42.624;23.386;2023-06-22T11:08:43;9.17;;;8.27;;
7917;SDS011;4004;42.624;23.386;2023-06-22T11:11:10;8.93;;;8.03;;
7917;SDS011;4004;42.624;23.386;2023-06-22T11:13:38;9.20;;;8.03;;
7917;SDS011;4004;42.624;23.386;2023-06-22T11:16:05;8.53;;;7.77;;
7917;SDS011;4004;42.624;23.386;2023-06-22T11:18:32;12.30;;;8.10;;
7917;SDS011;4004;42.624;23.386;2023-06-22T11:20:59;9.90;;;7.90;;
7917;SDS011;4004;42.624;23.386;2023-06-22T11:23:26;8.63;;;7.83;;
7917;SDS011;4004;42.624;23.386;2023-06-22T11:25:53;9.10;;;8.30;;
7917;SDS011;4004;42.624;23.386;2023-06-22T11:28:20;9.33;;;8.40;;
7917;SDS011;4004;42.624;23.386;2023-06-22T11:30:51;11.87;;;8.37;;
7917;SDS011;4004;42.624;23.386;2023-06-22T11:33:18;11.37;;;8.07;;
7917;SDS011;4004;42.624;23.386;2023-06-22T11:35:45;10.57;;;8.60;;
7917;SDS011;4004;42.624;23.386;2023-06-22T11:38:12;8.93;;;8.03;;
7917;SDS011;4004;42.624;23.386;2023-06-22T11:40:38;10.57;;;9.13;;
7917;SDS011;4004;42.624;23.386;2023-06-22T11:43:05;12.57;;;8.43;;
7917;SDS011;4004;42.624;23.386;2023-06-22T11:45:32;18.37;;;9.17;;
7917;SDS011;4004;42.624;23.386;2023-06-22T11:48:00;12.17;;;9.47;;
7917;SDS011;4004;42.624;23.386;2023-06-22T11:50:27;10.33;;;9.20;;
7917;SDS011;4004;42.624;23.386;2023-06-22T11:52:55;10.93;;;7.83;;
7917;SDS011;4004;42.624;23.386;2023-06-22T11:55:22;8.67;;;7.87;;
7917;SDS011;4004;42.624;23.386;2023-06-22T11:57:53;8.57;;;7.60;;
7917;SDS011;4004;42.624;23.386;2023-06-22T12:00:21;13.20;;;8.40;;
7917;SDS011;4004;42.624;23.386;2023-06-22T12:02:49;8.33;;;7.53;;
7917;SDS011;4004;42.624;23.386;2023-06-22T12:05:17;9.10;;;7.67;;
7917;SDS011;4004;42.624;23.386;2023-06-22T12:07:45;11.20;;;7.70;;
7917;SDS011;4004;42.624;23.386;2023-06-22T12:10:12;8.73;;;7.83;;
7917;SDS011;4004;42.624;23.386;2023-06-22T12:12:39;10.83;;;9.73;;
7917;SDS011;4004;42.624;23.386;2023-06-22T12:15:06;11.47;;;8.40;;
7917;SDS011;4004;42.624;23.386;2023-06-22T12:17:34;9.63;;;8.73;;
7917;SDS011;4004;42.624;23.386;2023-06-22T12:20:01;12.00;;;8.47;;
7917;SDS011;4004;42.624;23.386;2023-06-22T12:22:32;8.73;;;7.90;;
7917;SDS011;4004;42.624;23.386;2023-06-22T12:24:58;9.60;;;7.70;;
7917;SDS011;4004;42.624;23.386;2023-06-22T12:27:25;8.67;;;7.87;;
7917;SDS011;4004;42.624;23.386;2023-06-22T12:29:52;9.67;;;8.10;;
7917;SDS011;4004;42.624;23.386;2023-06-22T12:32:19;9.13;;;8.33;;
7917;SDS011;4004;42.624;23.386;2023-06-22T12:34:46;9.73;;;8.67;;
7917;SDS011;4004;42.624;23.386;2023-06-22T12:37:12;9.53;;;8.53;;
7917;SDS011;4004;42.624;23.386;2023-06-22T12:39:41;11.10;;;8.53;;
7917;SDS011;4004;42.624;23.386;2023-06-22T12:42:08;12.33;;;8.40;;
7917;SDS011;4004;42.624;23.386;2023-06-22T12:44:37;10.17;;;7.97;;
7917;SDS011;4004;42.624;23.386;2023-06-22T12:47:04;18.30;;;9.13;;
7917;SDS011;4004;42.624;23.386;2023-06-22T12:49:31;11.67;;;9.20;;
7917;SDS011;4004;42.624;23.386;2023-06-22T12:51:58;17.77;;;11.20;;
7917;SDS011;4004;42.624;23.386;2023-06-22T12:54:25;17.63;;;12.33;;
7917;SDS011;4004;42.624;23.386;2023-06-22T12:56:55;15.63;;;12.07;;
7917;SDS011;4004;42.624;23.386;2023-06-22T12:59:22;14.17;;;11.37;;
7917;SDS011;4004;42.624;23.386;2023-06-22T13:01:48;15.37;;;11.10;;
7917;SDS011;4004;42.624;23.386;2023-06-22T13:04:15;17.37;;;12.50;;
7917;SDS011;4004;42.624;23.386;2023-06-22T13:06:43;17.57;;;13.67;;
7917;SDS011;4004;42.624;23.386;2023-06-22T13:09:12;23.13;;;12.50;;
7917;SDS011;4004;42.624;23.386;2023-06-22T13:11:39;20.23;;;13.80;;
7917;SDS011;4004;42.624;23.386;2023-06-22T13:14:08;16.37;;;12.17;;
7917;SDS011;4004;42.624;23.386;2023-06-22T13:16:34;19.87;;;12.73;;
7917;SDS011;4004;42.624;23.386;2023-06-22T13:19:01;20.50;;;13.70;;
7917;SDS011;4004;42.624;23.386;2023-06-22T13:21:28;19.27;;;12.77;;
7917;SDS011;4004;42.624;23.386;2023-06-22T13:23:55;16.27;;;10.93;;
7917;SDS011;4004;42.624;23.386;2023-06-22T13:26:21;12.37;;;10.83;;
7917;SDS011;4004;42.624;23.386;2023-06-22T13:28:48;13.33;;;10.07;;
7917;SDS011;4004;42.624;23.386;2023-06-22T13:31:16;15.00;;;10.83;;
7917;SDS011;4004;42.624;23.386;2023-06-22T13:33:43;11.67;;;10.47;;
7917;SDS011;4004;42.624;23.386;2023-06-22T13:36:12;12.80;;;10.80;;
7917;SDS011;4004;42.624;23.386;2023-06-22T13:38:39;13.87;;;10.70;;
7917;SDS011;4004;42.624;23.386;2023-06-22T13:41:06;17.77;;;11.90;;
7917;SDS011;4004;42.624;23.386;2023-06-22T13:43:33;13.37;;;10.87;;
7917;SDS011;4004;42.624;23.386;2023-06-22T13:45:59;16.80;;;11.80;;
7917;SDS011;4004;42.624;23.386;2023-06-22T13:48:27;12.77;;;10.50;;
7917;SDS011;4004;42.624;23.386;2023-06-22T13:50:54;12.10;;;9.43;;
7917;SDS011;4004;42.624;23.386;2023-06-22T13:53:24;13.70;;;10.37;;
7917;SDS011;4004;42.624;23.386;2023-06-22T13:55:51;12.23;;;10.00;;
7917;SDS011;4004;42.624;23.386;2023-06-22T13:58:17;10.97;;;9.87;;
7917;SDS011;4004;42.624;23.386;2023-06-22T14:00:45;11.50;;;9.57;;
7917;SDS011;4004;42.624;23.386;2023-06-22T14:03:12;11.13;;;9.17;;
7917;SDS011;4004;42.624;23.386;2023-06-22T14:05:42;10.83;;;8.97;;
7917;SDS011;4004;42.624;23.386;2023-06-22T14:08:09;14.53;;;9.50;;
7917;SDS011;4004;42.624;23.386;2023-06-22T14:10:36;10.50;;;9.50;;
7917;SDS011;4004;42.624;23.386;2023-06-22T14:13:02;10.70;;;9.60;;
7917;SDS011;4004;42.624;23.386;2023-06-22T14:15:31;11.93;;;9.83;;
7917;SDS011;4004;42.624;23.386;2023-06-22T14:17:57;12.40;;;11.10;;
7917;SDS011;4004;42.624;23.386;2023-06-22T14:20:24;13.00;;;10.50;;
7917;SDS011;4004;42.624;23.386;2023-06-22T14:22:52;13.80;;;11.33;;
7917;SDS011;4004;42.624;23.386;2023-06-22T14:25:19;14.07;;;12.07;;
7917;SDS011;4004;42.624;23.386;2023-06-22T14:27:46;12.70;;;11.40;;
7917;SDS011;4004;42.624;23.386;2023-06-22T14:30:13;12.53;;;11.17;;
7917;SDS011;4004;42.624;23.386;2023-06-22T14:32:40;14.30;;;12.47;;
7917;SDS011;4004;42.624;23.386;2023-06-22T14:35:10;13.63;;;11.73;;
7917;SDS011;4004;42.624;23.386;2023-06-22T14:37:36;16.27;;;11.63;;
7917;SDS011;4004;42.624;23.386;2023-06-22T14:40:05;15.63;;;11.67;;
7917;SDS011;4004;42.624;23.386;2023-06-22T14:42:32;17.93;;;12.30;;
7917;SDS011;4004;42.624;23.386;2023-06-22T14:44:59;15.23;;;12.60;;
7917;SDS011;4004;42.624;23.386;2023-06-22T14:47:26;17.43;;;13.00;;
7917;SDS011;4004;42.624;23.386;2023-06-22T14:49:53;13.73;;;11.47;;